createdAt,value
2022-11-16T00:02:25.744Z,11.95
2022-11-16T00:04:55.231Z,11.94
2022-11-16T00:07:24.790Z,11.89
2022-11-16T00:09:54.417Z,11.91
2022-11-16T00:12:23.961Z,11.92
2022-11-16T00:14:56.168Z,11.92
2022-11-16T00:17:25.646Z,11.92
2022-11-16T00:19:55.154Z,11.88
2022-11-16T00:22:24.829Z,11.95
2022-11-16T00:24:54.303Z,11.93
2022-11-16T00:27:23.927Z,11.98
2022-11-16T00:29:56.034Z,11.94
2022-11-16T00:32:26.291Z,11.97
2022-11-16T00:34:55.782Z,11.92
2022-11-16T00:37:25.250Z,11.92
2022-11-16T00:39:54.774Z,11.91
2022-11-16T00:42:24.243Z,11.85
2022-11-16T00:44:56.378Z,11.88
2022-11-16T00:47:26.610Z,11.77
2022-11-16T00:49:56.352Z,11.79
2022-11-16T00:52:25.840Z,11.74
2022-11-16T00:54:55.371Z,11.70
2022-11-16T00:57:24.895Z,11.66
2022-11-16T00:59:57.004Z,11.62
2022-11-16T01:02:28.003Z,11.61
2022-11-16T01:04:57.507Z,11.51
2022-11-16T01:07:27.139Z,11.47
2022-11-16T01:09:56.830Z,11.52
2022-11-16T01:12:23.907Z,11.46
2022-11-16T01:14:56.082Z,11.43
2022-11-16T01:17:25.623Z,11.46
2022-11-16T01:19:55.555Z,11.54
2022-11-16T01:22:25.194Z,11.52
2022-11-16T01:24:54.731Z,11.55
2022-11-16T01:27:24.295Z,11.56
2022-11-16T01:29:56.579Z,11.59
2022-11-16T01:32:26.196Z,11.53
2022-11-16T01:34:55.766Z,11.49
2022-11-16T01:37:25.270Z,11.44
2022-11-16T01:39:54.863Z,11.39
2022-11-16T01:42:27.100Z,11.28
2022-11-16T01:45:10.815Z,11.34
2022-11-16T01:47:40.280Z,11.27
2022-11-16T01:50:14.251Z,11.19
2022-11-16T01:52:48.236Z,11.22
2022-11-16T01:55:18.391Z,11.11
2022-11-16T01:57:50.387Z,11.22
2022-11-16T02:00:22.805Z,11.27
2022-11-16T02:02:52.312Z,11.27
2022-11-16T02:05:25.422Z,11.36
2022-11-16T02:08:20.868Z,11.30
2022-11-16T02:11:04.551Z,11.30
2022-11-16T02:13:43.897Z,11.34
2022-11-16T02:16:27.090Z,11.25
2022-11-16T02:19:03.477Z,11.25
2022-11-16T02:21:45.465Z,11.23
2022-11-16T02:24:37.828Z,11.16
2022-11-16T02:27:37.183Z,11.19
2022-11-16T02:30:10.634Z,11.13
2022-11-16T02:32:45.190Z,11.03
2022-11-16T02:35:21.679Z,11.08
2022-11-16T02:37:56.064Z,10.99
2022-11-16T02:40:30.831Z,10.99
2022-11-16T02:43:08.038Z,11.00
2022-11-16T02:45:44.648Z,10.94
2022-11-16T02:48:19.960Z,10.96
2022-11-16T02:50:52.823Z,10.95
2022-11-16T02:53:24.483Z,10.90
2022-11-16T02:55:54.348Z,10.95
2022-11-16T02:58:27.519Z,10.89
2022-11-16T03:01:04.094Z,10.87
2022-11-16T03:03:40.743Z,10.87
2022-11-16T03:06:16.077Z,10.82
2022-11-16T03:08:50.907Z,10.82
2022-11-16T03:11:33.155Z,10.77
2022-11-16T03:14:06.602Z,10.78
2022-11-16T03:16:43.260Z,10.75
2022-11-16T03:19:17.382Z,10.76
2022-11-16T03:21:51.214Z,10.87
2022-11-16T03:24:20.946Z,10.79
2022-11-16T03:26:53.581Z,10.89
2022-11-16T03:29:29.089Z,10.87
2022-11-16T03:32:06.511Z,10.87
2022-11-16T03:34:38.995Z,10.82
2022-11-16T03:37:09.238Z,10.80
2022-11-16T03:39:42.621Z,10.79
2022-11-16T03:42:16.712Z,10.66
2022-11-16T03:44:48.691Z,10.55
2022-11-16T03:47:20.927Z,10.57
2022-11-16T03:49:50.999Z,10.55
2022-11-16T03:52:20.876Z,10.46
2022-11-16T03:54:50.476Z,10.47
2022-11-16T03:57:19.975Z,10.40
2022-11-16T03:59:49.651Z,10.36
2022-11-16T04:02:21.818Z,10.43
2022-11-16T04:05:03.831Z,10.33
2022-11-16T04:07:45.816Z,10.16
2022-11-16T04:10:28.403Z,10.32
2022-11-16T04:13:10.686Z,10.17
2022-11-16T04:15:52.734Z,10.26
2022-11-16T04:18:37.409Z,10.32
2022-11-16T04:21:19.884Z,10.31
2022-11-16T04:24:03.439Z,10.19
2022-11-16T04:26:45.391Z,10.22
2022-11-16T04:29:16.295Z,10.14
2022-11-16T04:31:58.293Z,10.04
2022-11-16T04:34:42.838Z,9.85
2022-11-16T04:37:28.171Z,9.89
2022-11-16T04:39:57.728Z,9.80
2022-11-16T04:42:27.285Z,9.87
2022-11-16T04:45:09.306Z,9.85
2022-11-16T04:47:38.775Z,9.68
2022-11-16T04:50:11.647Z,9.75
2022-11-16T04:52:41.117Z,9.72
2022-11-16T04:55:11.883Z,9.64
2022-11-16T04:57:42.059Z,9.59
2022-11-16T05:00:13.342Z,9.63
2022-11-16T05:02:43.004Z,9.62
2022-11-16T05:05:15.291Z,9.61
2022-11-16T05:07:44.844Z,9.60
2022-11-16T05:10:14.536Z,9.68
2022-11-16T05:12:44.451Z,9.67
2022-11-16T05:15:14.294Z,9.56
2022-11-16T05:17:43.825Z,9.66
2022-11-16T05:20:28.609Z,9.62
2022-11-16T05:22:58.706Z,9.49
2022-11-16T05:25:25.922Z,9.26
2022-11-16T05:27:55.788Z,9.30
2022-11-16T05:30:25.294Z,9.04
2022-11-16T05:32:54.819Z,9.10
2022-11-16T05:35:26.951Z,8.95
2022-11-16T05:37:56.496Z,8.84
2022-11-16T05:40:26.023Z,8.81
2022-11-16T05:42:55.641Z,8.65
2022-11-16T05:45:25.137Z,8.67
2022-11-16T05:47:54.677Z,8.74
2022-11-16T05:50:26.832Z,8.59
2022-11-16T05:52:56.345Z,8.67
2022-11-16T05:55:25.878Z,8.51
2022-11-16T05:57:55.482Z,8.50
2022-11-16T06:00:25.033Z,8.49
2022-11-16T06:02:54.666Z,8.35
2022-11-16T06:05:26.940Z,8.27
2022-11-16T06:07:56.478Z,8.38
2022-11-16T06:10:26.064Z,8.35
2022-11-16T06:12:55.657Z,8.47
2022-11-16T06:15:25.142Z,8.43
2022-11-16T06:17:54.660Z,8.57
2022-11-16T06:20:26.893Z,8.55
2022-11-16T06:22:56.370Z,8.46
2022-11-16T06:25:25.906Z,8.57
2022-11-16T06:27:55.593Z,8.53
2022-11-16T06:30:25.092Z,8.54
2022-11-16T06:32:54.700Z,8.50
2022-11-16T06:35:26.920Z,8.51
2022-11-16T06:37:56.472Z,8.40
2022-11-16T06:40:26.012Z,8.37
2022-11-16T06:42:57.198Z,8.39
2022-11-16T06:45:26.885Z,8.43
2022-11-16T06:47:56.545Z,8.47
2022-11-16T06:50:29.071Z,8.44
2022-11-16T06:53:00.880Z,8.57
2022-11-16T06:55:30.434Z,8.61
2022-11-16T06:58:01.077Z,8.56
2022-11-16T07:00:30.628Z,8.55
2022-11-16T07:03:00.424Z,8.51
2022-11-16T07:05:32.587Z,8.48
2022-11-16T07:08:02.234Z,8.45
2022-11-16T07:10:31.841Z,8.53
2022-11-16T07:13:04.683Z,8.60
2022-11-16T07:15:34.582Z,8.64
2022-11-16T07:18:08.415Z,8.64
2022-11-16T07:20:40.673Z,8.69
2022-11-16T07:23:14.296Z,8.71
2022-11-16T07:25:46.773Z,8.78
2022-11-16T07:28:16.369Z,8.63
2022-11-16T07:30:46.866Z,8.55
2022-11-16T07:33:17.160Z,8.56
2022-11-16T07:35:49.235Z,8.58
2022-11-16T07:38:18.774Z,8.53
2022-11-16T07:40:48.278Z,8.48
2022-11-16T07:43:17.822Z,8.32
2022-11-16T07:45:47.396Z,8.51
2022-11-16T07:48:16.934Z,8.48
2022-11-16T07:50:49.112Z,8.35
2022-11-16T07:53:18.624Z,8.30
2022-11-16T07:55:54.677Z,8.19
2022-11-16T07:58:24.548Z,8.10
2022-11-16T08:00:54.648Z,8.10
2022-11-16T08:03:24.868Z,8.09
2022-11-16T08:06:03.908Z,8.12
2022-11-16T08:08:33.949Z,8.14
2022-11-16T08:11:04.595Z,8.17
2022-11-16T08:13:36.882Z,8.19
2022-11-16T08:16:09.374Z,8.20
2022-11-16T08:18:40.145Z,8.10
2022-11-16T08:21:14.718Z,7.95
2022-11-16T08:23:45.016Z,8.01
2022-11-16T08:26:16.955Z,7.91
2022-11-16T08:28:48.210Z,7.81
2022-11-16T08:31:20.985Z,7.81
2022-11-16T08:33:51.779Z,7.75
2022-11-16T08:36:24.082Z,7.72
2022-11-16T08:38:54.945Z,7.70
2022-11-16T08:41:24.918Z,7.72
2022-11-16T08:43:54.514Z,7.74
2022-11-16T08:46:24.372Z,7.83
2022-11-16T08:48:58.574Z,7.91
2022-11-16T08:51:30.727Z,7.88
2022-11-16T08:54:01.769Z,7.79
2022-11-16T08:56:31.295Z,7.56
2022-11-16T08:59:01.408Z,7.77
2022-11-16T09:01:32.707Z,7.72
2022-11-16T09:04:02.711Z,7.77
2022-11-16T09:06:35.014Z,7.80
2022-11-16T09:09:04.539Z,7.68
2022-11-16T09:11:34.050Z,7.57
2022-11-16T09:14:03.666Z,7.52
2022-11-16T09:16:33.176Z,7.55
2022-11-16T09:19:03.702Z,7.54
2022-11-16T09:21:37.196Z,7.50
2022-11-16T09:24:07.330Z,7.60
2022-11-16T09:26:36.834Z,7.54
2022-11-16T09:29:06.452Z,7.49
2022-11-16T09:31:37.503Z,7.45
2022-11-16T09:34:07.113Z,7.40
2022-11-16T09:36:39.293Z,7.37
2022-11-16T09:42:19.160Z,7.43
2022-11-16T09:45:04.806Z,7.33
2022-11-16T09:47:44.768Z,7.37
2022-11-16T09:50:26.825Z,7.32
2022-11-16T09:53:03.211Z,7.35
2022-11-16T09:55:40.672Z,7.40
2022-11-16T09:58:16.672Z,7.32
2022-11-16T10:00:51.381Z,7.26
2022-11-16T10:03:20.971Z,7.32
2022-11-16T10:05:58.698Z,7.39
2022-11-16T10:08:43.134Z,7.37
2022-11-16T10:11:46.547Z,7.41
2022-11-16T10:14:54.475Z,7.40
2022-11-16T10:17:34.947Z,7.43
2022-11-16T10:20:27.734Z,7.32
2022-11-16T10:23:10.166Z,7.46
2022-11-16T10:25:47.686Z,7.53
2022-11-16T10:28:30.678Z,7.58
2022-11-16T10:31:05.867Z,7.69
2022-11-16T10:33:39.892Z,7.57
2022-11-16T10:36:15.697Z,7.70
2022-11-16T10:38:47.281Z,7.65
2022-11-16T10:41:22.267Z,7.78
2022-11-16T10:43:52.344Z,7.74
2022-11-16T10:46:27.999Z,7.79
2022-11-16T10:49:06.734Z,7.87
2022-11-16T10:51:36.330Z,7.90
2022-11-16T10:54:06.122Z,7.83
2022-11-16T10:56:43.001Z,7.93
2022-11-16T10:59:14.541Z,8.00
2022-11-16T11:01:48.213Z,7.91
2022-11-16T11:04:23.633Z,7.90
2022-11-16T11:06:55.354Z,7.93
2022-11-16T11:09:29.246Z,8.04
2022-11-16T11:12:20.208Z,8.04
2022-11-16T11:15:31.402Z,8.07
2022-11-16T11:18:19.229Z,8.15
2022-11-16T11:20:51.187Z,8.16
2022-11-16T11:23:24.091Z,8.13
2022-11-16T11:25:58.908Z,8.13
2022-11-16T11:28:33.046Z,8.18
2022-11-16T11:31:05.599Z,8.22
2022-11-16T11:33:38.826Z,8.13
2022-11-16T11:36:14.608Z,8.23
2022-11-16T11:39:00.424Z,8.27
2022-11-16T11:41:35.492Z,8.29
2022-11-16T11:44:09.628Z,8.29
2022-11-16T11:47:23.710Z,8.25
2022-11-16T11:49:37.220Z,8.24
2022-11-16T11:52:13.387Z,8.32
2022-11-16T11:54:47.828Z,8.20
2022-11-16T11:57:22.136Z,8.22
2022-11-16T11:59:57.267Z,8.27
2022-11-16T12:02:44.772Z,8.30
2022-11-16T12:05:48.557Z,8.22
2022-11-16T12:08:30.783Z,8.19
2022-11-16T12:11:08.874Z,8.19
2022-11-16T12:13:55.755Z,8.22
2022-11-16T12:16:35.425Z,8.22
2022-11-16T12:19:33.956Z,8.15
2022-11-16T12:22:16.134Z,8.13
2022-11-16T12:25:06.451Z,8.23
2022-11-16T12:27:45.575Z,8.23
2022-11-16T12:30:19.338Z,8.20
2022-11-16T12:33:05.990Z,8.04
2022-11-16T12:35:47.306Z,8.12
2022-11-16T12:38:31.217Z,8.18
2022-11-16T12:41:19.447Z,8.20
2022-11-16T12:43:58.577Z,8.10
2022-11-16T12:46:39.750Z,8.15
2022-11-16T12:49:37.901Z,8.08
2022-11-16T12:52:21.735Z,8.05
2022-11-16T12:58:10.401Z,7.79
2022-11-16T13:00:55.283Z,7.84
2022-11-16T13:03:36.203Z,7.74
2022-11-16T13:06:12.483Z,7.86
2022-11-16T13:08:51.110Z,7.90
2022-11-16T13:11:25.693Z,7.81
2022-11-16T13:14:01.169Z,7.81
2022-11-16T13:16:32.249Z,7.82
2022-11-16T13:19:03.532Z,7.86
2022-11-16T13:21:50.066Z,7.90
2022-11-16T13:24:42.722Z,7.86
2022-11-16T13:27:22.187Z,7.87
2022-11-16T13:29:58.848Z,7.91
2022-11-16T13:32:39.669Z,7.91
2022-11-16T13:35:16.678Z,7.93
2022-11-16T13:37:50.951Z,7.91
2022-11-16T13:40:27.140Z,7.95
2022-11-16T13:43:09.662Z,7.82
2022-11-16T13:45:43.738Z,7.81
2022-11-16T13:48:21.947Z,7.75
2022-11-16T13:50:56.863Z,7.75
2022-11-16T13:56:29.102Z,7.76
2022-11-16T13:59:00.146Z,7.70
2022-11-16T14:01:58.061Z,7.73
2022-11-16T14:04:58.923Z,7.65
2022-11-16T14:07:47.506Z,7.56
2022-11-16T14:10:55.516Z,7.61
2022-11-16T14:13:45.682Z,7.53
2022-11-16T14:16:46.290Z,7.60
2022-11-16T14:19:47.609Z,7.55
2022-11-16T14:22:27.366Z,7.53
2022-11-16T14:25:04.951Z,7.56
2022-11-16T14:27:43.157Z,7.55
2022-11-16T14:30:22.487Z,7.58
2022-11-16T14:32:54.677Z,7.58
2022-11-16T14:35:32.388Z,7.58
2022-11-16T14:38:07.390Z,7.52
2022-11-16T14:40:45.418Z,7.57
2022-11-16T14:43:22.844Z,7.54
2022-11-16T14:45:57.814Z,7.53
2022-11-16T14:48:28.628Z,7.55
2022-11-16T14:51:07.497Z,7.55
2022-11-16T14:53:40.273Z,7.51
2022-11-16T14:56:15.192Z,7.59
2022-11-16T14:58:53.903Z,7.55
2022-11-16T15:01:29.943Z,7.53
2022-11-16T15:04:03.333Z,7.53
2022-11-16T15:06:38.326Z,7.47
2022-11-16T15:09:08.618Z,7.42
2022-11-16T15:11:54.254Z,7.49
2022-11-16T15:14:30.793Z,7.52
2022-11-16T15:17:03.501Z,7.49
2022-11-16T15:19:33.979Z,7.54
2022-11-16T15:22:05.737Z,7.56
2022-11-16T15:24:36.962Z,7.56
2022-11-16T15:27:33.752Z,7.49
2022-11-16T15:30:17.555Z,7.59
2022-11-16T15:32:51.781Z,7.47
2022-11-16T15:35:24.241Z,7.48
2022-11-16T15:38:04.399Z,7.47
2022-11-16T15:40:35.237Z,7.42
2022-11-16T15:43:08.742Z,7.35
2022-11-16T15:45:40.322Z,7.40
2022-11-16T15:48:18.933Z,7.40
2022-11-16T15:51:04.303Z,7.45
2022-11-16T15:53:40.471Z,7.37
2022-11-16T15:56:15.041Z,7.35
2022-11-16T15:58:45.576Z,7.35
2022-11-16T16:01:16.970Z,7.30
2022-11-16T16:03:57.852Z,7.27
2022-11-16T16:06:46.686Z,7.28
2022-11-16T16:09:23.855Z,7.29
2022-11-16T16:11:54.147Z,7.25
2022-11-16T16:14:29.431Z,7.27
2022-11-16T16:17:01.481Z,7.22
2022-11-16T16:19:45.353Z,7.29
2022-11-16T16:22:17.709Z,7.31
2022-11-16T16:24:49.452Z,7.32
2022-11-16T16:27:20.964Z,7.35
2022-11-16T16:29:52.041Z,7.33
2022-11-16T16:32:27.759Z,7.28
2022-11-16T16:35:01.534Z,7.34
2022-11-16T16:37:40.625Z,7.32
2022-11-16T16:40:12.400Z,7.30
2022-11-16T16:42:44.014Z,7.35
2022-11-16T16:45:17.788Z,7.15
2022-11-16T16:47:47.897Z,7.26
2022-11-16T16:50:20.167Z,7.30
2022-11-16T16:52:49.904Z,7.22
2022-11-16T16:55:19.554Z,7.21
2022-11-16T16:57:50.355Z,7.24
2022-11-16T17:00:23.344Z,7.16
2022-11-16T17:02:53.180Z,7.13
2022-11-16T17:05:26.543Z,7.21
2022-11-16T17:07:57.814Z,7.17
2022-11-16T17:10:27.615Z,7.21
2022-11-16T17:12:57.281Z,7.13
2022-11-16T17:15:27.407Z,7.18
2022-11-16T17:17:57.094Z,7.19
2022-11-16T17:20:29.527Z,7.24
2022-11-16T17:22:59.120Z,7.16
2022-11-16T17:25:30.259Z,7.14
2022-11-16T17:28:00.258Z,7.11
2022-11-16T17:30:30.177Z,7.14
2022-11-16T17:32:59.696Z,7.21
2022-11-16T17:35:32.225Z,7.21
2022-11-16T17:38:02.339Z,7.14
2022-11-16T17:40:31.883Z,7.16
2022-11-16T17:43:01.632Z,7.17
2022-11-16T17:45:31.204Z,7.21
2022-11-16T17:48:00.695Z,7.18
2022-11-16T17:50:33.235Z,7.17
2022-11-16T17:53:04.140Z,7.07
2022-11-16T17:55:33.943Z,7.15
2022-11-16T17:58:03.432Z,7.10
2022-11-16T18:00:33.048Z,7.09
2022-11-16T18:03:02.644Z,7.06
2022-11-16T18:05:35.332Z,7.05
2022-11-16T18:08:05.242Z,7.11
2022-11-16T18:10:36.566Z,7.08
2022-11-16T18:13:07.205Z,7.08
2022-11-16T18:15:42.395Z,7.04
2022-11-16T18:21:05.352Z,7.15
2022-11-16T18:23:37.107Z,7.13
2022-11-16T18:26:10.399Z,7.11
2022-11-16T18:28:41.720Z,7.11
2022-11-16T18:31:14.043Z,7.14
2022-11-16T18:33:44.584Z,7.12
2022-11-16T18:36:16.900Z,7.08
2022-11-16T18:38:46.828Z,7.07
2022-11-16T18:41:21.102Z,7.12
2022-11-16T18:43:52.922Z,7.09
2022-11-16T18:46:23.944Z,7.11
2022-11-16T18:48:53.515Z,7.05
2022-11-16T18:51:27.452Z,7.11
2022-11-16T18:53:57.024Z,7.09
2022-11-16T18:56:27.937Z,7.03
2022-11-16T18:58:59.375Z,6.99
2022-11-16T19:01:30.534Z,6.99
2022-11-16T19:04:00.783Z,6.98
2022-11-16T19:06:35.263Z,6.88
2022-11-16T19:09:13.096Z,6.89
2022-11-16T19:11:43.548Z,6.84
2022-11-16T19:14:13.538Z,6.85
2022-11-16T19:16:54.126Z,6.74
2022-11-16T19:19:27.747Z,6.83
2022-11-16T19:22:00.361Z,6.78
2022-11-16T19:24:29.979Z,6.70
2022-11-16T19:26:59.918Z,6.73
2022-11-16T19:29:32.162Z,6.71
2022-11-16T19:32:02.553Z,6.65
2022-11-16T19:34:35.644Z,6.59
2022-11-16T19:37:09.755Z,6.71
2022-11-16T19:39:46.833Z,6.67
2022-11-16T19:42:30.032Z,6.53
2022-11-16T19:44:59.676Z,6.51
2022-11-16T19:47:29.364Z,6.64
2022-11-16T19:49:59.299Z,6.59
2022-11-16T19:52:31.424Z,6.57
2022-11-16T19:55:03.365Z,6.54
2022-11-16T19:57:33.496Z,6.46
2022-11-16T20:00:02.972Z,6.43
2022-11-16T20:02:32.651Z,6.55
2022-11-16T20:05:02.152Z,6.51
2022-11-16T20:07:38.284Z,6.48
2022-11-16T20:10:09.004Z,6.41
2022-11-16T20:12:38.796Z,6.45
2022-11-16T20:15:09.551Z,6.52
2022-11-16T20:17:39.455Z,6.49
2022-11-16T20:20:10.153Z,6.45
2022-11-16T20:22:47.554Z,6.44
2022-11-16T20:25:27.047Z,6.34
2022-11-16T20:28:05.386Z,6.24
2022-11-16T20:30:35.534Z,6.21
2022-11-16T20:33:08.171Z,6.32
2022-11-16T20:35:38.164Z,6.48
2022-11-16T20:38:10.534Z,6.41
2022-11-16T20:40:40.379Z,6.28
2022-11-16T20:43:14.417Z,6.36
2022-11-16T20:46:00.311Z,6.36
2022-11-16T20:48:39.050Z,6.25
2022-11-16T20:51:09.856Z,6.22
2022-11-16T20:53:42.513Z,6.33
2022-11-16T20:56:13.700Z,6.28
2022-11-16T20:58:43.997Z,6.35
2022-11-16T21:01:16.486Z,6.43
2022-11-16T21:03:46.835Z,6.38
2022-11-16T21:06:17.897Z,6.48
2022-11-16T21:08:50.364Z,6.44
2022-11-16T21:11:23.018Z,6.47
2022-11-16T21:14:05.191Z,6.38
2022-11-16T21:16:35.813Z,6.36
2022-11-16T21:19:06.437Z,6.36
2022-11-16T21:21:38.256Z,6.38
2022-11-16T21:24:11.335Z,6.44
2022-11-16T21:27:10.158Z,6.23
2022-11-16T21:29:40.039Z,6.37
2022-11-16T21:32:12.970Z,6.35
2022-11-16T21:34:42.656Z,6.26
2022-11-16T21:37:12.741Z,6.28
2022-11-16T21:39:45.266Z,6.25
2022-11-16T21:42:17.550Z,6.24
2022-11-16T21:44:51.524Z,6.46
2022-11-16T21:47:21.346Z,6.21
2022-11-16T21:50:16.852Z,6.41
2022-11-16T21:52:40.752Z,6.21
2022-11-16T21:55:13.060Z,6.38
2022-11-16T21:57:48.059Z,6.47
2022-11-16T22:00:18.881Z,6.48
2022-11-16T22:02:48.638Z,6.38
2022-11-16T22:05:39.612Z,6.49
2022-11-16T22:08:11.555Z,6.43
2022-11-16T22:10:43.719Z,6.45
2022-11-16T22:13:13.327Z,6.51
2022-11-16T22:15:45.841Z,6.45
2022-11-16T22:18:15.468Z,6.50
2022-11-16T22:20:50.375Z,6.38
2022-11-16T22:23:34.436Z,6.33
2022-11-16T22:26:08.253Z,6.40
2022-11-16T22:28:39.140Z,6.50
2022-11-16T22:31:10.782Z,6.46
2022-11-16T22:33:41.154Z,6.38
2022-11-16T22:36:14.570Z,6.50
2022-11-16T22:38:44.208Z,6.42
2022-11-16T22:41:16.347Z,6.44
2022-11-16T22:43:46.007Z,6.40
2022-11-16T22:46:15.536Z,6.30
2022-11-16T22:48:45.159Z,6.48
2022-11-16T22:51:21.210Z,6.46
2022-11-16T22:53:54.614Z,6.45
2022-11-16T22:56:28.450Z,6.39
2022-11-16T22:58:58.510Z,6.32
2022-11-16T23:01:28.186Z,6.41
2022-11-16T23:03:58.159Z,6.35
2022-11-16T23:06:27.771Z,6.36
2022-11-16T23:08:57.617Z,6.32
2022-11-16T23:11:42.998Z,6.30
2022-11-16T23:14:27.543Z,6.19
2022-11-16T23:16:57.461Z,6.23
2022-11-16T23:19:40.748Z,6.35
2022-11-16T23:22:27.158Z,6.29
2022-11-16T23:25:09.251Z,6.30
2022-11-16T23:27:47.610Z,6.20
2022-11-16T23:30:17.803Z,6.24
2022-11-16T23:32:47.535Z,6.22
2022-11-16T23:35:17.412Z,6.27
2022-11-16T23:38:00.747Z,6.23
2022-11-16T23:40:33.041Z,6.20
2022-11-16T23:43:17.935Z,6.21
2022-11-16T23:45:49.559Z,6.21
2022-11-16T23:48:20.615Z,6.22
2022-11-16T23:50:50.366Z,6.20
2022-11-16T23:53:19.912Z,6.18
2022-11-16T23:55:49.563Z,6.15
2022-11-16T23:58:21.770Z,6.19
